Time,TemperatureF,DewpointF,PressureIn,WindDirection,WindDirectionDegrees,WindSpeedMPH,WindSpeedGustMPH,Humidity,HourlyPrecipIn,Conditions,Clouds,dailyrainin,SoftwareType,DateUTC
2013-02-19 00:00:00,36.5,24.3,30.24,SSW,196,0.0,6.0,61,0.00,,OVC,0.00,VWS V14.01,2013-02-19 05:00:00,
2013-02-19 00:05:00,36.4,24.2,30.23,SSW,199,0.0,2.0,61,0.00,,OVC,0.00,VWS V14.01,2013-02-19 05:05:00,
2013-02-19 00:07:00,36.4,24.2,30.23,SSW,199,0.0,2.0,61,0.00,,OVC,0.00,VWS V14.01,2013-02-19 05:07:00,
2013-02-19 00:08:00,36.4,24.6,30.23,SSW,199,1.0,2.0,62,0.00,,OVC,0.00,VWS V14.01,2013-02-19 05:08:00,
2013-02-19 00:13:00,36.3,24.1,30.23,West,260,0.0,2.0,61,0.00,,OVC,0.00,VWS V14.01,2013-02-19 05:13:00,
2013-02-19 00:18:00,36.2,24.5,30.23,West,260,0.0,2.0,62,0.00,,OVC,0.00,VWS V14.01,2013-02-19 05:18:00,
2013-02-19 00:23:00,36.0,24.3,30.22,West,260,0.0,2.0,62,0.00,,OVC,0.00,VWS V14.01,2013-02-19 05:23:00,
2013-02-19 01:00:00,35.5,24.5,30.22,SSW,202,0.0,4.0,64,0.00,,OVC,0.00,VWS V14.01,2013-02-19 06:00:00,
2013-02-19 02:00:00,34.1,24.3,30.17,SSW,202,0.0,3.0,67,0.00,,OVC,0.00,VWS V14.01,2013-02-19 07:00:00,
2013-02-19 03:00:00,34.4,25.0,30.15,WSW,248,0.0,5.0,68,0.00,,OVC,0.00,VWS V14.01,2013-02-19 08:00:00,
2013-02-19 04:00:00,35.3,26.2,30.14,SSW,202,1.0,7.0,69,0.00,,OVC,0.00,VWS V14.01,2013-02-19 09:00:00,
2013-02-19 05:00:00,35.5,27.7,30.12,SW,225,1.0,8.0,73,0.00,,OVC,0.00,VWS V14.01,2013-02-19 10:00:00,
2013-02-19 06:00:00,34.9,30.9,30.10,SW,225,1.0,10.0,85,0.01,,OVC,0.01,VWS V14.01,2013-02-19 11:00:00,
2013-02-19 07:00:00,35.1,33.8,30.09,East,90,2.0,15.0,95,0.08,,OVC,0.08,VWS V14.01,2013-02-19 12:00:00,
2013-02-19 08:00:00,35.0,34.0,30.07,ENE,68,2.0,11.0,96,0.15,,OVC,0.16,VWS V14.01,2013-02-19 13:00:00,
2013-02-19 09:00:00,34.6,33.6,30.05,SW,225,1.0,8.0,96,0.12,,OVC,0.20,VWS V14.01,2013-02-19 14:00:00,
2013-02-19 10:00:00,34.2,33.4,30.03,SW,225,1.0,6.0,97,0.05,,OVC,0.21,VWS V14.01,2013-02-19 15:00:00,
2013-02-19 11:00:00,35.4,34.6,30.02,SW,225,1.0,8.0,97,0.01,,OVC,0.21,VWS V14.01,2013-02-19 16:00:00,
2013-02-19 12:00:00,37.2,36.4,30.00,SSW,202,0.0,4.0,97,0.00,,OVC,0.21,VWS V14.01,2013-02-19 17:00:00,
2013-02-19 13:00:00,38.8,38.0,29.97,SW,225,0.0,3.0,97,0.00,,OVC,0.21,VWS V14.01,2013-02-19 18:00:00,
2013-02-19 14:00:00,39.8,39.3,29.95,SW,225,1.0,5.0,98,0.00,,OVC,0.21,VWS V14.01,2013-02-19 19:00:00,
2013-02-19 15:00:00,41.6,41.1,29.93,WSW,248,0.0,5.0,98,0.00,,OVC,0.21,VWS V14.01,2013-02-19 20:00:00,
2013-02-19 16:00:00,43.3,42.8,29.93,SW,225,0.0,4.0,98,0.00,,OVC,0.21,VWS V14.01,2013-02-19 21:00:00,
2013-02-19 17:00:00,47.7,43.7,29.95,SW,225,0.0,6.0,86,0.00,,OVC,0.21,VWS V14.01,2013-02-19 22:00:00,
2013-02-19 18:00:00,44.3,34.0,29.97,ENE,68,1.0,9.0,67,0.00,,OVC,0.21,VWS V14.01,2013-02-19 23:00:00,
2013-02-19 19:00:00,40.7,27.1,30.01,NE,45,1.0,10.0,58,0.00,,OVC,0.21,VWS V14.01,2013-02-20 00:00:00,
2013-02-19 20:00:00,39.3,23.6,30.03,SSE,158,0.0,4.0,53,0.00,,OVC,0.21,VWS V14.01,2013-02-20 01:00:00,
2013-02-19 21:00:00,38.0,19.6,30.04,ENE,68,0.0,5.0,47,0.00,,OVC,0.21,VWS V14.01,2013-02-20 02:00:00,
2013-02-19 22:00:00,35.9,17.6,30.06,ESE,112,0.0,2.0,47,0.00,,OVC,0.21,VWS V14.01,2013-02-20 03:00:00,
2013-02-19 23:00:00,35.2,17.0,30.06,SSW,202,0.0,4.0,47,0.00,,OVC,0.21,VWS V14.01,2013-02-20 04:00:00,